Time;durP1;ratioP1;P1;durP2;ratioP2;P2;SDS_P1;SDS_P2;PMS_P1;PMS_P2;Temp;Humidity;BMP_temperature;BMP_pressure;BME280_temperature;BME280_humidity;BME280_pressure;Samples;Min_cycle;Max_cycle;Signal;HPM_P1;HPM_P2
2022/03/17 00:01:30;;;;;;;53.53;31.60;;;;;;;;;;10339764;28;20216;-76
2022/03/17 00:06:31;;;;;;;51.65;29.85;;;;;;;;;;10332296;28;20228;-77
2022/03/17 00:11:32;;;;;;;52.75;30.77;;;;;;;;;;10331888;28;20227;-77
2022/03/17 00:16:34;;;;;;;55.13;31.75;;;;;;;;;;10337242;28;20208;-77
2022/03/17 00:21:36;;;;;;;56.00;32.67;;;;;;;;;;10336752;28;20208;-77
2022/03/17 00:26:37;;;;;;;56.95;31.48;;;;;;;;;;10339159;28;20266;-77
2022/03/17 00:31:39;;;;;;;56.90;32.25;;;;;;;;;;10339314;28;20208;-77
2022/03/17 00:36:40;;;;;;;60.20;33.88;;;;;;;;;;10334353;28;20204;-77
2022/03/17 00:41:41;;;;;;;56.28;31.30;;;;;;;;;;10334600;28;20227;-77
2022/03/17 00:46:43;;;;;;;59.90;31.35;;;;;;;;;;10334224;28;20218;-76
2022/03/17 00:51:45;;;;;;;55.70;31.02;;;;;;;;;;10336476;28;20192;-77
2022/03/17 00:56:46;;;;;;;61.63;33.60;;;;;;;;;;10336344;28;20201;-77
2022/03/17 01:01:47;;;;;;;55.63;31.67;;;;;;;;;;10334856;28;20260;-77
2022/03/17 01:06:48;;;;;;;55.70;32.33;;;;;;;;;;10337276;28;20228;-76
2022/03/17 01:11:49;;;;;;;57.80;34.28;;;;;;;;;;10337735;28;20212;-77
2022/03/17 01:16:50;;;;;;;58.45;31.67;;;;;;;;;;10333045;28;20200;-77
2022/03/17 01:21:51;;;;;;;56.97;31.58;;;;;;;;;;10338588;28;20219;-77
2022/03/17 01:26:52;;;;;;;64.80;33.70;;;;;;;;;;10331432;28;20948;-77
2022/03/17 01:31:53;;;;;;;55.67;31.33;;;;;;;;;;10337995;28;20208;-77
2022/03/17 01:36:54;;;;;;;56.33;32.10;;;;;;;;;;10336004;28;20197;-77
2022/03/17 01:41:58;;;;;;;55.58;31.13;;;;;;;;;;10335306;28;20228;-77
2022/03/17 01:52:20;;;;;;;61.42;31.65;;;;;;;;;;10337525;28;20208;-77
2022/03/17 01:57:22;;;;;;;53.38;31.95;;;;;;;;;;10333869;28;20201;-77
2022/03/17 02:02:24;;;;;;;57.72;31.77;;;;;;;;;;10341898;28;20228;-77
2022/03/17 02:07:25;;;;;;;53.83;31.92;;;;;;;;;;10342232;28;20213;-77
2022/03/17 02:17:47;;;;;;;57.05;32.15;;;;;;;;;;10339376;28;20275;-77
2022/03/17 02:22:49;;;;;;;55.33;31.60;;;;;;;;;;10341505;28;20205;-77
2022/03/17 02:27:50;;;;;;;60.28;32.33;;;;;;;;;;10342574;28;20220;-77
2022/03/17 02:32:59;;;;;;;56.85;31.08;;;;;;;;;;10343157;28;20786;-77
2022/03/17 02:38:02;;;;;;;51.67;31.15;;;;;;;;;;10344708;28;20212;-77
2022/03/17 02:43:07;;;;;;;55.00;31.80;;;;;;;;;;10340082;28;20592;-77
2022/03/17 02:48:09;;;;;;;56.83;31.90;;;;;;;;;;10344840;28;20235;-77
2022/03/17 02:53:11;;;;;;;52.83;31.42;;;;;;;;;;10341425;28;20201;-77
2022/03/17 02:58:13;;;;;;;57.95;32.25;;;;;;;;;;10339244;28;20728;-77
2022/03/17 03:03:17;;;;;;;57.50;34.15;;;;;;;;;;10338739;28;20229;-77
2022/03/17 03:08:18;;;;;;;62.38;34.88;;;;;;;;;;10336697;28;20235;-78
2022/03/17 03:13:19;;;;;;;58.13;33.08;;;;;;;;;;10341509;28;20312;-77
2022/03/17 03:18:20;;;;;;;58.95;33.90;;;;;;;;;;10335232;28;20216;-77
2022/03/17 03:23:21;;;;;;;59.78;32.92;;;;;;;;;;10336319;28;20216;-77
2022/03/17 03:28:22;;;;;;;56.70;31.60;;;;;;;;;;10373277;28;20212;-77
2022/03/17 03:33:23;;;;;;;61.83;34.17;;;;;;;;;;10342957;28;20229;-76
2022/03/17 03:38:24;;;;;;;58.20;33.15;;;;;;;;;;10340147;28;20211;-77
2022/03/17 03:43:25;;;;;;;60.88;34.38;;;;;;;;;;10334828;28;20328;-77
2022/03/17 03:48:26;;;;;;;65.63;32.97;;;;;;;;;;10334547;28;20693;-77
2022/03/17 03:54:12;;;;;;;59.10;33.70;;;;;;;;;;10335865;28;20192;-77
2022/03/17 03:58:48;;;;;;;67.80;35.35;;;;;;;;;;10330119;28;20220;-77
2022/03/17 04:03:49;;;;;;;61.80;34.67;;;;;;;;;;10328569;28;20216;-76
2022/03/17 04:08:50;;;;;;;60.72;33.60;;;;;;;;;;10328848;28;20213;-77
2022/03/17 04:13:51;;;;;;;61.30;32.90;;;;;;;;;;10336787;28;20212;-77
2022/03/17 04:18:52;;;;;;;64.38;32.92;;;;;;;;;;10331620;28;20216;-77
2022/03/17 04:23:53;;;;;;;62.63;33.95;;;;;;;;;;10341500;28;20224;-76
2022/03/17 04:28:55;;;;;;;69.68;34.80;;;;;;;;;;10339290;28;20223;-77
2022/03/17 04:33:56;;;;;;;67.55;34.47;;;;;;;;;;10335040;28;20213;-76
2022/03/17 04:38:58;;;;;;;57.45;31.85;;;;;;;;;;10329977;28;20259;-76
2022/03/17 04:43:59;;;;;;;67.13;35.92;;;;;;;;;;10332934;28;20266;-77
2022/03/17 04:49:00;;;;;;;59.72;33.40;;;;;;;;;;10340842;28;20221;-76
2022/03/17 04:54:02;;;;;;;62.47;35.55;;;;;;;;;;10331697;28;20231;-76
2022/03/17 04:59:03;;;;;;;67.88;35.28;;;;;;;;;;10335214;28;20912;-76
2022/03/17 05:04:05;;;;;;;65.60;35.47;;;;;;;;;;10333060;28;20219;-76
2022/03/17 05:09:06;;;;;;;67.50;36.38;;;;;;;;;;10335404;28;20295;-77
2022/03/17 05:14:07;;;;;;;67.20;37.00;;;;;;;;;;10337855;28;20200;-77
2022/03/17 05:19:09;;;;;;;62.78;32.92;;;;;;;;;;10332912;28;20340;-76
2022/03/17 05:24:10;;;;;;;67.95;35.83;;;;;;;;;;10340386;28;20265;-76
2022/03/17 05:29:12;;;;;;;66.25;36.65;;;;;;;;;;10338898;28;20783;-69
2022/03/17 05:34:13;;;;;;;62.42;33.90;;;;;;;;;;10344544;28;20223;-76
2022/03/17 05:39:14;;;;;;;60.17;31.77;;;;;;;;;;10340351;28;20701;-76
2022/03/17 05:44:15;;;;;;;65.75;34.28;;;;;;;;;;10351587;28;20236;-75
2022/03/17 05:49:18;;;;;;;61.42;35.42;;;;;;;;;;10344860;28;20328;-77
2022/03/17 05:54:19;;;;;;;62.90;33.88;;;;;;;;;;10347396;28;20204;-78
2022/03/17 05:59:20;;;;;;;64.35;34.78;;;;;;;;;;10350993;28;20291;-76
2022/03/17 06:04:22;;;;;;;57.67;32.65;;;;;;;;;;10343117;28;20219;-76
2022/03/17 06:09:23;;;;;;;62.80;35.80;;;;;;;;;;10344500;28;20216;-77
2022/03/17 06:14:26;;;;;;;60.00;33.78;;;;;;;;;;10345806;28;20557;-76
2022/03/17 06:19:27;;;;;;;62.78;33.53;;;;;;;;;;10346184;28;20209;-76
2022/03/17 06:24:28;;;;;;;70.78;36.03;;;;;;;;;;10346455;28;20208;-76
2022/03/17 06:29:29;;;;;;;60.67;34.10;;;;;;;;;;10343713;28;20205;-76
2022/03/17 06:34:31;;;;;;;57.70;33.80;;;;;;;;;;10337256;28;20857;-77
2022/03/17 06:39:32;;;;;;;67.80;36.03;;;;;;;;;;10341607;28;20375;-76
2022/03/17 06:44:33;;;;;;;57.22;31.50;;;;;;;;;;10340090;28;20225;-76
2022/03/17 06:49:34;;;;;;;55.10;31.95;;;;;;;;;;10342284;28;20863;-78
2022/03/17 06:54:35;;;;;;;58.97;33.92;;;;;;;;;;10338820;28;20703;-76
2022/03/17 06:59:36;;;;;;;55.92;32.78;;;;;;;;;;10343585;28;20675;-76
2022/03/17 07:04:37;;;;;;;54.53;34.35;;;;;;;;;;10347408;28;20700;-77
2022/03/17 07:09:39;;;;;;;59.22;34.28;;;;;;;;;;10331665;28;20329;-78
2022/03/17 07:14:40;;;;;;;59.38;33.42;;;;;;;;;;10330262;28;20234;-78
2022/03/17 07:19:41;;;;;;;60.92;33.53;;;;;;;;;;10332375;28;20199;-78
2022/03/17 07:24:42;;;;;;;57.85;32.83;;;;;;;;;;10334363;28;20679;-78
2022/03/17 07:29:44;;;;;;;56.40;34.15;;;;;;;;;;10330770;28;20228;-78
2022/03/17 07:34:46;;;;;;;60.65;35.25;;;;;;;;;;10335297;28;20212;-76
2022/03/17 07:39:48;;;;;;;53.22;31.75;;;;;;;;;;10343905;28;20224;-77
2022/03/17 07:44:51;;;;;;;50.45;29.80;;;;;;;;;;10344400;28;20275;-78
2022/03/17 07:50:27;;;;;;;56.15;32.40;;;;;;;;;;10301138;28;20688;-77
2022/03/17 07:55:28;;;;;;;57.78;32.90;;;;;;;;;;10341079;28;20200;-77
2022/03/17 08:00:29;;;;;;;57.10;31.95;;;;;;;;;;10343609;28;20210;-77
2022/03/17 08:05:31;;;;;;;54.92;30.95;;;;;;;;;;10340610;28;20216;-78
2022/03/17 08:10:32;;;;;;;59.58;34.28;;;;;;;;;;10345361;28;20220;-77
2022/03/17 08:15:33;;;;;;;59.53;34.45;;;;;;;;;;10348843;28;20200;-77
2022/03/17 08:20:38;;;;;;;57.53;35.40;;;;;;;;;;10343755;28;20203;-77
2022/03/17 08:25:39;;;;;;;56.85;32.83;;;;;;;;;;10342950;28;20554;-77
2022/03/17 08:30:40;;;;;;;52.15;30.77;;;;;;;;;;10346996;28;20220;-77
2022/03/17 08:35:42;;;;;;;56.38;30.83;;;;;;;;;;10345574;28;20238;-77
2022/03/17 08:40:43;;;;;;;57.10;34.85;;;;;;;;;;10341382;28;20227;-77
2022/03/17 08:51:04;;;;;;;60.53;35.42;;;;;;;;;;10338594;28;20209;-77
2022/03/17 08:56:06;;;;;;;56.30;34.03;;;;;;;;;;10342737;28;20205;-77
2022/03/17 09:01:07;;;;;;;60.50;35.33;;;;;;;;;;10343225;28;20275;-77
2022/03/17 09:06:11;;;;;;;54.67;34.03;;;;;;;;;;10349441;28;20294;-79
2022/03/17 09:11:13;;;;;;;55.53;33.97;;;;;;;;;;10349722;28;20288;-71
2022/03/17 09:16:14;;;;;;;57.38;35.88;;;;;;;;;;10351681;28;20203;-78
2022/03/17 09:21:15;;;;;;;56.50;33.80;;;;;;;;;;10349768;28;20235;-78
2022/03/17 09:26:16;;;;;;;51.60;34.92;;;;;;;;;;10347224;28;20208;-78
2022/03/17 09:31:17;;;;;;;54.60;34.03;;;;;;;;;;10348506;28;20350;-76
2022/03/17 09:36:18;;;;;;;56.22;36.53;;;;;;;;;;10347236;28;20205;-75
2022/03/17 09:41:32;;;;;;;57.45;34.72;;;;;;;;;;10345884;28;20239;-78
2022/03/17 09:46:33;;;;;;;51.58;32.97;;;;;;;;;;10351865;28;20209;-76
2022/03/17 09:51:35;;;;;;;51.17;32.45;;;;;;;;;;10348903;28;20205;-77
2022/03/17 09:56:36;;;;;;;55.47;35.15;;;;;;;;;;10348887;28;20208;-78
2022/03/17 10:01:38;;;;;;;52.05;35.58;;;;;;;;;;10347970;28;20307;-78
2022/03/17 10:06:39;;;;;;;57.08;35.88;;;;;;;;;;10345585;28;20271;-76
2022/03/17 10:11:40;;;;;;;54.00;34.83;;;;;;;;;;10351090;28;20295;-78
2022/03/17 10:16:41;;;;;;;51.53;35.40;;;;;;;;;;10342902;28;20280;-78
2022/03/17 10:21:43;;;;;;;53.03;35.03;;;;;;;;;;10346943;28;20320;-76
2022/03/17 10:26:54;;;;;;;53.08;35.25;;;;;;;;;;10347401;28;20216;-76
2022/03/17 10:31:55;;;;;;;50.92;34.35;;;;;;;;;;10342500;28;20216;-77
2022/03/17 10:37:07;;;;;;;46.83;33.80;;;;;;;;;;10342876;28;20291;-74
2022/03/17 10:42:12;;;;;;;50.30;35.22;;;;;;;;;;10342949;28;20304;-74
2022/03/17 10:47:13;;;;;;;52.80;34.50;;;;;;;;;;10342993;28;20223;-74
2022/03/17 10:52:14;;;;;;;46.58;33.50;;;;;;;;;;10342886;28;20200;-75
2022/03/17 10:57:18;;;;;;;50.80;35.28;;;;;;;;;;10347414;28;20204;-76
2022/03/17 11:02:24;;;;;;;48.03;34.65;;;;;;;;;;10341995;28;20256;-75
2022/03/17 11:07:25;;;;;;;47.72;34.63;;;;;;;;;;10346694;28;20609;-75
2022/03/17 11:12:27;;;;;;;50.15;33.85;;;;;;;;;;10340607;28;20213;-74
2022/03/17 11:17:36;;;;;;;49.85;35.80;;;;;;;;;;10340993;28;20232;-75
2022/03/17 11:22:39;;;;;;;46.40;34.58;;;;;;;;;;10342749;28;20229;-76
2022/03/17 11:27:45;;;;;;;46.15;34.42;;;;;;;;;;10340481;28;20211;-76
2022/03/17 11:32:56;;;;;;;48.97;35.05;;;;;;;;;;10343813;28;20215;-75
2022/03/17 11:38:16;;;;;;;48.30;34.45;;;;;;;;;;10343079;28;20259;-75
2022/03/17 11:43:17;;;;;;;47.50;33.75;;;;;;;;;;10341383;28;20232;-76
2022/03/17 11:48:18;;;;;;;50.58;35.72;;;;;;;;;;10340003;28;20208;-74
2022/03/17 11:53:21;;;;;;;51.67;34.97;;;;;;;;;;10342368;28;20262;-76
2022/03/17 11:58:23;;;;;;;47.20;34.83;;;;;;;;;;10344714;28;20282;-75
2022/03/17 12:03:47;;;;;;;48.47;34.97;;;;;;;;;;10339308;28;20228;-76
2022/03/17 12:09:02;;;;;;;48.80;35.08;;;;;;;;;;10335133;28;20718;-76
2022/03/17 12:14:17;;;;;;;50.25;34.95;;;;;;;;;;10339204;28;20208;-77
2022/03/17 12:19:36;;;;;;;50.80;35.58;;;;;;;;;;10334208;28;20227;-76
2022/03/17 12:24:39;;;;;;;44.40;33.50;;;;;;;;;;10340049;28;20208;-77
2022/03/17 12:29:41;;;;;;;48.22;32.50;;;;;;;;;;10336301;28;20707;-77
2022/03/17 12:34:44;;;;;;;44.88;33.53;;;;;;;;;;10337731;28;20225;-74
2022/03/17 12:39:52;;;;;;;49.17;35.50;;;;;;;;;;10335421;28;20353;-76
2022/03/17 12:44:55;;;;;;;44.55;34.60;;;;;;;;;;10338533;28;20205;-77
2022/03/17 12:49:57;;;;;;;49.88;34.30;;;;;;;;;;10365342;28;20221;-77
2022/03/17 12:54:59;;;;;;;45.45;33.20;;;;;;;;;;10336311;28;20248;-77
2022/03/17 13:00:00;;;;;;;47.08;35.83;;;;;;;;;;10338275;28;20192;-76
2022/03/17 13:06:54;;;;;;;53.25;36.67;;;;;;;;;;10341375;28;20271;-77
2022/03/17 13:10:26;;;;;;;49.83;34.83;;;;;;;;;;10338441;28;20255;-76
2022/03/17 13:15:28;;;;;;;57.50;36.63;;;;;;;;;;10337889;28;20211;-76
2022/03/17 13:20:29;;;;;;;44.35;32.83;;;;;;;;;;10340477;28;20700;-77
2022/03/17 13:25:32;;;;;;;34.88;26.23;;;;;;;;;;10334203;28;20204;-77
2022/03/17 13:30:34;;;;;;;30.73;22.40;;;;;;;;;;10340119;28;20572;-76
2022/03/17 13:35:36;;;;;;;28.77;23.15;;;;;;;;;;10344294;28;20224;-77
2022/03/17 13:40:46;;;;;;;30.48;21.98;;;;;;;;;;10341788;28;20228;-76
2022/03/17 13:45:48;;;;;;;31.42;23.77;;;;;;;;;;10355726;28;20225;-77
2022/03/17 13:50:49;;;;;;;31.05;24.98;;;;;;;;;;10342916;28;20213;-77
2022/03/17 13:55:55;;;;;;;33.35;25.30;;;;;;;;;;10350896;28;20625;-77
2022/03/17 14:00:57;;;;;;;33.80;25.02;;;;;;;;;;10346021;28;20274;-77
2022/03/17 14:05:58;;;;;;;33.53;26.02;;;;;;;;;;10351799;28;20582;-79
2022/03/17 14:11:03;;;;;;;33.42;26.58;;;;;;;;;;10352916;28;20199;-78
2022/03/17 14:16:05;;;;;;;32.00;25.00;;;;;;;;;;10349934;28;20216;-77
2022/03/17 14:21:08;;;;;;;30.48;23.33;;;;;;;;;;10352849;28;20211;-77
2022/03/17 14:26:09;;;;;;;27.80;21.60;;;;;;;;;;10355237;28;20252;-77
2022/03/17 14:31:12;;;;;;;21.38;17.30;;;;;;;;;;10354906;28;20213;-79
2022/03/17 14:36:13;;;;;;;19.10;16.45;;;;;;;;;;10350779;28;21007;-77
2022/03/17 14:41:15;;;;;;;18.17;15.68;;;;;;;;;;10343130;28;20236;-77
2022/03/17 14:46:16;;;;;;;18.00;14.73;;;;;;;;;;10342698;28;20273;-77
2022/03/17 14:51:18;;;;;;;19.13;15.05;;;;;;;;;;10352885;28;20227;-79
2022/03/17 14:56:20;;;;;;;17.08;13.65;;;;;;;;;;10332816;28;20250;-76
2022/03/17 15:01:22;;;;;;;14.35;11.95;;;;;;;;;;10346385;28;20274;-77
2022/03/17 15:06:24;;;;;;;11.70;10.52;;;;;;;;;;10353795;28;20763;-78
2022/03/17 15:11:26;;;;;;;11.88;10.57;;;;;;;;;;10343435;28;20215;-75
2022/03/17 15:16:27;;;;;;;12.48;10.98;;;;;;;;;;10345060;28;20201;-76
2022/03/17 15:21:28;;;;;;;12.65;11.35;;;;;;;;;;10343480;28;20204;-78
2022/03/17 15:26:29;;;;;;;12.52;11.20;;;;;;;;;;10344255;28;20226;-75
2022/03/17 15:31:30;;;;;;;13.50;10.88;;;;;;;;;;10346452;28;20222;-78
2022/03/17 15:36:31;;;;;;;12.38;11.18;;;;;;;;;;10339261;28;20216;-77
2022/03/17 15:41:32;;;;;;;12.68;11.02;;;;;;;;;;10343594;28;20227;-76
2022/03/17 15:46:34;;;;;;;13.45;10.68;;;;;;;;;;10340901;28;20221;-77
2022/03/17 15:51:35;;;;;;;13.20;10.55;;;;;;;;;;10340400;28;20227;-75
2022/03/17 15:56:36;;;;;;;12.48;10.95;;;;;;;;;;10340632;28;20212;-76
2022/03/17 16:01:37;;;;;;;17.52;12.40;;;;;;;;;;10343248;28;20913;-76
2022/03/17 16:06:38;;;;;;;19.50;14.27;;;;;;;;;;10341188;28;20300;-76
2022/03/17 16:17:00;;;;;;;20.02;15.70;;;;;;;;;;10349147;28;20208;-77
2022/03/17 16:22:01;;;;;;;24.27;17.35;;;;;;;;;;10344112;28;20201;-75
2022/03/17 16:27:03;;;;;;;19.85;14.82;;;;;;;;;;10336868;28;20211;-76
2022/03/17 16:32:04;;;;;;;19.52;15.90;;;;;;;;;;10338166;28;20223;-78
2022/03/17 16:37:06;;;;;;;27.70;15.50;;;;;;;;;;10341483;28;20587;-78
2022/03/17 16:42:08;;;;;;;22.42;15.73;;;;;;;;;;10339483;28;20277;-78
2022/03/17 16:47:09;;;;;;;24.58;15.75;;;;;;;;;;10343547;28;20598;-78
2022/03/17 16:52:10;;;;;;;25.48;14.10;;;;;;;;;;10340755;28;20202;-77
2022/03/17 16:57:12;;;;;;;17.38;13.30;;;;;;;;;;10341399;28;20569;-81
2022/03/17 17:02:14;;;;;;;25.05;13.77;;;;;;;;;;10349692;28;20615;-78
2022/03/17 17:07:15;;;;;;;15.75;12.07;;;;;;;;;;10339754;28;20257;-78
2022/03/17 17:12:16;;;;;;;16.40;12.25;;;;;;;;;;10341382;28;20208;-79
2022/03/17 17:17:18;;;;;;;18.40;10.25;;;;;;;;;;10341901;28;20235;-78
2022/03/17 17:22:20;;;;;;;16.48;9.77;;;;;;;;;;10340453;28;20224;-76
2022/03/17 17:32:42;;;;;;;15.75;11.32;;;;;;;;;;10346759;28;20231;-82
2022/03/17 17:37:43;;;;;;;19.48;9.55;;;;;;;;;;10356154;28;20208;-79
2022/03/17 17:42:45;;;;;;;14.77;9.88;;;;;;;;;;10352398;28;20232;-78
2022/03/17 17:47:48;;;;;;;13.93;9.43;;;;;;;;;;10352967;28;20212;-78
2022/03/17 17:52:50;;;;;;;13.20;7.75;;;;;;;;;;10348808;28;20216;-80
2022/03/17 17:57:55;;;;;;;9.90;8.27;;;;;;;;;;10346843;28;20211;-78
2022/03/17 18:02:59;;;;;;;14.35;8.88;;;;;;;;;;10342902;28;20221;-74
2022/03/17 18:08:00;;;;;;;12.48;8.63;;;;;;;;;;10348439;28;20224;-79
2022/03/17 18:13:01;;;;;;;15.30;8.10;;;;;;;;;;10347104;28;20560;-78
2022/03/17 18:18:03;;;;;;;17.55;9.00;;;;;;;;;;10349730;28;20213;-82
2022/03/17 18:23:06;;;;;;;12.30;9.85;;;;;;;;;;10351875;28;20205;-77
2022/03/17 18:28:07;;;;;;;12.15;7.53;;;;;;;;;;10347967;28;20347;-76
2022/03/17 18:33:08;;;;;;;10.05;6.75;;;;;;;;;;10345451;28;20236;-77
2022/03/17 18:38:09;;;;;;;7.63;6.75;;;;;;;;;;10347107;28;20335;-76
2022/03/17 18:43:10;;;;;;;13.90;7.72;;;;;;;;;;10348650;28;20382;-77
2022/03/17 18:48:11;;;;;;;8.95;7.20;;;;;;;;;;10347933;28;20270;-77
2022/03/17 18:53:12;;;;;;;11.73;7.57;;;;;;;;;;10347985;28;20196;-79
2022/03/17 18:58:14;;;;;;;6.68;5.53;;;;;;;;;;10343665;28;20750;-77
2022/03/17 19:03:15;;;;;;;9.93;5.53;;;;;;;;;;10345605;28;20224;-76
2022/03/17 19:08:18;;;;;;;8.90;5.30;;;;;;;;;;10350490;28;20204;-77
2022/03/17 19:13:23;;;;;;;8.52;5.75;;;;;;;;;;10343032;28;20295;-76
2022/03/17 19:18:24;;;;;;;7.85;5.38;;;;;;;;;;10341997;28;20211;-76
2022/03/17 19:23:25;;;;;;;9.63;5.75;;;;;;;;;;10340494;28;20769;-76
2022/03/17 19:28:26;;;;;;;8.80;5.63;;;;;;;;;;10344761;28;20277;-76
2022/03/17 19:33:27;;;;;;;9.77;5.53;;;;;;;;;;10339871;28;20221;-75
2022/03/17 19:38:28;;;;;;;10.07;5.78;;;;;;;;;;10336024;28;20208;-76
2022/03/17 19:43:29;;;;;;;8.23;5.75;;;;;;;;;;10341407;28;20228;-76
2022/03/17 19:48:31;;;;;;;13.40;6.00;;;;;;;;;;10343070;28;20217;-76
2022/03/17 19:53:35;;;;;;;13.88;5.60;;;;;;;;;;10344094;28;20275;-77
2022/03/17 19:58:38;;;;;;;12.00;5.53;;;;;;;;;;10345050;28;20212;-77
2022/03/17 20:03:41;;;;;;;10.73;5.72;;;;;;;;;;10341090;28;20239;-76
2022/03/17 20:08:42;;;;;;;8.55;5.13;;;;;;;;;;10343359;28;20612;-76
2022/03/17 20:13:43;;;;;;;13.45;5.25;;;;;;;;;;10341540;28;20193;-76
2022/03/17 20:18:45;;;;;;;5.63;4.32;;;;;;;;;;10341455;28;20645;-77
2022/03/17 20:23:47;;;;;;;8.07;4.55;;;;;;;;;;10342426;28;20291;-77
2022/03/17 20:28:50;;;;;;;15.18;5.07;;;;;;;;;;10340794;28;20278;-76
2022/03/17 20:33:54;;;;;;;11.10;4.63;;;;;;;;;;10337740;28;20216;-74
2022/03/17 20:38:55;;;;;;;6.88;4.63;;;;;;;;;;10345839;28;20268;-74
2022/03/17 20:43:57;;;;;;;13.02;4.30;;;;;;;;;;10347268;28;20216;-78
2022/03/17 20:48:59;;;;;;;9.20;4.38;;;;;;;;;;10340204;28;20216;-78
2022/03/17 20:54:01;;;;;;;9.02;3.65;;;;;;;;;;10342718;28;20200;-76
2022/03/17 20:59:02;;;;;;;10.45;3.92;;;;;;;;;;10340939;28;20291;-76
2022/03/17 21:04:03;;;;;;;4.80;3.50;;;;;;;;;;10350185;28;20773;-77
2022/03/17 21:09:06;;;;;;;8.82;4.13;;;;;;;;;;10343394;28;20211;-78
2022/03/17 21:14:07;;;;;;;5.60;3.38;;;;;;;;;;10349676;28;20579;-78
2022/03/17 21:19:08;;;;;;;7.55;3.88;;;;;;;;;;10349484;28;20208;-78
2022/03/17 21:24:09;;;;;;;11.27;4.60;;;;;;;;;;10350001;28;20204;-78
2022/03/17 21:29:10;;;;;;;9.23;4.20;;;;;;;;;;10350725;28;20290;-78
2022/03/17 21:34:11;;;;;;;8.43;4.43;;;;;;;;;;10350802;28;20307;-78
2022/03/17 21:39:13;;;;;;;10.13;4.13;;;;;;;;;;10347231;28;20246;-77
2022/03/17 21:44:14;;;;;;;8.63;4.03;;;;;;;;;;10347507;28;20208;-70
2022/03/17 21:49:15;;;;;;;10.45;3.80;;;;;;;;;;10347963;28;20700;-78
2022/03/17 21:54:16;;;;;;;9.48;3.90;;;;;;;;;;10348809;28;20192;-78
2022/03/17 21:59:17;;;;;;;7.22;3.70;;;;;;;;;;10351169;28;20689;-78
2022/03/17 22:04:20;;;;;;;13.88;3.75;;;;;;;;;;10350655;28;20309;-80
2022/03/17 22:09:21;;;;;;;14.60;4.40;;;;;;;;;;10343555;28;20220;-76
2022/03/17 22:14:22;;;;;;;10.60;4.10;;;;;;;;;;10347692;28;20288;-76
2022/03/17 22:19:23;;;;;;;10.55;4.30;;;;;;;;;;10348973;28;20575;-76
2022/03/17 22:24:24;;;;;;;11.30;6.03;;;;;;;;;;10348420;28;20224;-78
2022/03/17 22:29:25;;;;;;;9.57;6.13;;;;;;;;;;10347470;28;20269;-79
2022/03/17 22:34:26;;;;;;;17.08;6.53;;;;;;;;;;10348961;28;20707;-77
2022/03/17 22:39:27;;;;;;;14.48;5.90;;;;;;;;;;10350228;28;20401;-77
2022/03/17 22:44:28;;;;;;;8.05;4.78;;;;;;;;;;10347188;28;21026;-77
2022/03/17 22:49:29;;;;;;;8.88;5.40;;;;;;;;;;10347410;28;20306;-76
2022/03/17 22:54:30;;;;;;;11.23;4.50;;;;;;;;;;10346894;28;20208;-76
2022/03/17 22:59:32;;;;;;;9.27;4.70;;;;;;;;;;10346394;28;20263;-76
2022/03/17 23:04:33;;;;;;;8.30;4.38;;;;;;;;;;10342922;28;20279;-69
2022/03/17 23:09:34;;;;;;;8.85;5.40;;;;;;;;;;10347404;28;20304;-76
2022/03/17 23:14:35;;;;;;;11.25;5.20;;;;;;;;;;10344291;28;20691;-77
2022/03/17 23:19:36;;;;;;;12.00;6.22;;;;;;;;;;10346492;28;20197;-76
2022/03/17 23:24:37;;;;;;;13.20;5.30;;;;;;;;;;10343121;28;20207;-78
2022/03/17 23:29:38;;;;;;;15.05;5.95;;;;;;;;;;10346085;28;20219;-77
2022/03/17 23:34:39;;;;;;;11.40;5.57;;;;;;;;;;10342218;28;20274;-77
2022/03/17 23:39:40;;;;;;;13.57;5.53;;;;;;;;;;10344158;28;20696;-77
2022/03/17 23:44:42;;;;;;;8.77;4.72;;;;;;;;;;10341800;28;20579;-77
2022/03/17 23:49:43;;;;;;;12.73;5.70;;;;;;;;;;10344216;28;20216;-77
2022/03/17 23:54:48;;;;;;;14.63;5.47;;;;;;;;;;10341673;28;20205;-77
2022/03/17 23:59:51;;;;;;;12.20;4.90;;;;;;;;;;10344526;28;20259;-78
